createdAt,value
2022-08-25T00:02:27.317Z,51.63
2022-08-25T00:05:16.314Z,51.38
2022-08-25T00:08:07.631Z,51.30
2022-08-25T00:11:03.088Z,51.82
2022-08-25T00:13:55.596Z,51.53
2022-08-25T00:16:44.471Z,51.69
2022-08-25T00:19:35.619Z,51.39
2022-08-25T00:22:24.194Z,51.43
2022-08-25T00:25:13.029Z,51.25
2022-08-25T00:28:07.839Z,51.42
2022-08-25T00:30:57.052Z,51.32
2022-08-25T00:33:46.350Z,51.48
2022-08-25T00:36:35.290Z,51.30
2022-08-25T00:39:25.014Z,51.41
2022-08-25T00:42:16.097Z,51.23
2022-08-25T00:45:08.507Z,51.35
2022-08-25T00:48:02.640Z,51.76
2022-08-25T00:50:51.197Z,51.36
2022-08-25T00:53:40.890Z,51.47
2022-08-25T00:56:31.577Z,51.28
2022-08-25T00:59:21.052Z,51.49
2022-08-25T01:02:13.588Z,51.30
2022-08-25T01:05:02.547Z,51.31
2022-08-25T01:07:51.696Z,50.92
2022-08-25T01:10:42.862Z,51.02
2022-08-25T01:13:34.078Z,51.37
2022-08-25T01:16:22.645Z,51.63
2022-08-25T01:19:15.369Z,51.36
2022-08-25T01:22:06.773Z,51.21
2022-08-25T01:24:59.126Z,51.23
2022-08-25T01:27:47.630Z,51.42
2022-08-25T01:30:36.615Z,51.38
2022-08-25T01:33:25.607Z,51.45
2022-08-25T01:36:14.072Z,50.77
2022-08-25T01:39:05.051Z,51.02
2022-08-25T01:42:10.623Z,50.87
2022-08-25T01:44:59.137Z,51.51
2022-08-25T01:47:47.638Z,51.16
2022-08-25T01:50:37.513Z,50.78
2022-08-25T01:53:29.488Z,51.26
2022-08-25T01:56:23.359Z,51.48
2022-08-25T01:59:12.025Z,50.93
2022-08-25T02:02:00.599Z,51.44
2022-08-25T02:04:51.559Z,51.00
2022-08-25T02:07:40.104Z,51.03
2022-08-25T02:10:28.649Z,51.52
2022-08-25T02:13:20.777Z,51.05
2022-08-25T02:16:20.631Z,50.93
2022-08-25T02:19:12.251Z,51.36
2022-08-25T02:22:01.966Z,51.18
2022-08-25T02:24:50.637Z,50.85
2022-08-25T02:27:39.274Z,51.14
2022-08-25T02:30:29.244Z,50.78
2022-08-25T02:33:17.841Z,50.76
2022-08-25T02:36:08.531Z,51.19
2022-08-25T02:38:57.036Z,50.69
2022-08-25T02:41:45.555Z,51.24
2022-08-25T02:44:34.097Z,51.24
2022-08-25T02:47:27.000Z,50.78
2022-08-25T02:50:16.108Z,51.41
2022-08-25T02:53:04.662Z,51.39
2022-08-25T02:55:53.149Z,51.01
2022-08-25T02:58:42.900Z,50.93
2022-08-25T03:01:32.652Z,51.40
2022-08-25T03:04:22.728Z,51.35
2022-08-25T03:07:12.630Z,51.14
2022-08-25T03:10:01.202Z,50.77
2022-08-25T03:12:49.754Z,50.75
2022-08-25T03:15:38.402Z,51.21
2022-08-25T03:18:27.664Z,50.77
2022-08-25T03:21:18.671Z,50.83
2022-08-25T03:24:07.832Z,50.83
2022-08-25T03:26:56.048Z,50.92
2022-08-25T03:29:44.592Z,50.82
2022-08-25T03:32:34.042Z,50.78
2022-08-25T03:35:22.954Z,50.97
2022-08-25T03:38:13.054Z,50.90
2022-08-25T03:41:02.108Z,50.92
2022-08-25T03:43:51.419Z,51.04
2022-08-25T03:46:41.768Z,50.97
2022-08-25T03:49:31.488Z,50.67
2022-08-25T03:52:21.971Z,51.26
2022-08-25T03:55:14.947Z,50.81
2022-08-25T03:58:03.574Z,50.97
2022-08-25T04:00:52.288Z,50.50
2022-08-25T04:03:40.885Z,50.74
2022-08-25T04:06:29.417Z,50.72
2022-08-25T04:09:17.963Z,50.64
2022-08-25T04:12:08.278Z,50.88
2022-08-25T04:14:57.065Z,50.59
2022-08-25T04:17:45.691Z,50.56
2022-08-25T04:20:35.079Z,50.63
2022-08-25T04:23:23.610Z,50.76
2022-08-25T04:26:12.511Z,50.79
2022-08-25T04:29:04.015Z,50.70
2022-08-25T04:31:53.467Z,50.86
2022-08-25T04:34:45.002Z,50.77
2022-08-25T04:37:37.537Z,51.44
2022-08-25T04:40:34.864Z,50.75
2022-08-25T04:43:25.678Z,50.82
2022-08-25T04:46:20.544Z,50.72
2022-08-25T04:49:10.079Z,51.04
2022-08-25T04:51:59.264Z,50.81
2022-08-25T04:54:47.947Z,51.00
2022-08-25T04:57:36.475Z,50.59
2022-08-25T05:00:25.316Z,50.74
2022-08-25T05:03:15.636Z,50.80
2022-08-25T05:06:05.112Z,51.53
2022-08-25T05:08:54.011Z,51.26
2022-08-25T05:11:42.647Z,51.04
2022-08-25T05:14:32.086Z,50.78
2022-08-25T05:17:20.681Z,51.46
2022-08-25T05:20:13.020Z,50.85
2022-08-25T05:23:01.612Z,50.89
2022-08-25T05:25:50.903Z,51.44
2022-08-25T05:28:44.482Z,50.92
2022-08-25T05:31:36.331Z,51.29
2022-08-25T05:34:27.017Z,50.83
2022-08-25T05:37:16.992Z,51.06
2022-08-25T05:40:06.803Z,51.10
2022-08-25T05:42:55.732Z,50.81
2022-08-25T05:45:44.359Z,51.04
2022-08-25T05:48:32.901Z,51.25
2022-08-25T05:51:21.571Z,51.10
2022-08-25T05:54:11.413Z,51.21
2022-08-25T05:57:01.135Z,51.21
2022-08-25T05:59:49.646Z,51.19
2022-08-25T06:02:44.186Z,50.97
2022-08-25T06:05:32.899Z,50.99
2022-08-25T06:08:21.474Z,51.07
2022-08-25T06:11:12.564Z,50.44
2022-08-25T06:14:01.055Z,50.40
2022-08-25T06:16:51.529Z,50.45
2022-08-25T06:19:41.303Z,50.72
2022-08-25T06:22:30.157Z,50.47
2022-08-25T06:25:21.571Z,50.56
2022-08-25T06:28:11.541Z,50.32
2022-08-25T06:31:01.290Z,50.54
2022-08-25T06:33:50.200Z,50.82
2022-08-25T06:36:38.848Z,50.19
2022-08-25T06:39:27.543Z,50.75
2022-08-25T06:42:16.133Z,50.05
2022-08-25T06:45:07.113Z,50.58
2022-08-25T06:47:55.671Z,50.60
2022-08-25T06:50:44.611Z,50.30
2022-08-25T06:53:33.206Z,50.49
2022-08-25T06:56:23.210Z,50.27
2022-08-25T06:59:12.832Z,50.47
2022-08-25T07:02:03.712Z,50.55
2022-08-25T07:04:53.568Z,50.21
2022-08-25T07:07:44.380Z,50.61
2022-08-25T07:10:33.075Z,50.07
2022-08-25T07:13:22.502Z,50.33
2022-08-25T07:16:12.048Z,49.80
2022-08-25T07:19:02.625Z,50.01
2022-08-25T07:21:52.528Z,49.92
2022-08-25T07:24:41.169Z,49.97
2022-08-25T07:27:29.706Z,50.29
2022-08-25T07:30:18.714Z,50.20
2022-08-25T07:33:09.872Z,50.01
2022-08-25T07:35:59.543Z,50.17
2022-08-25T07:38:48.032Z,50.00
2022-08-25T07:41:39.455Z,49.98
2022-08-25T07:44:28.753Z,50.45
2022-08-25T07:47:17.465Z,50.06
2022-08-25T07:50:13.776Z,49.78
2022-08-25T07:53:04.553Z,50.44
2022-08-25T07:55:53.638Z,49.89
2022-08-25T07:58:42.900Z,49.75
2022-08-25T08:01:32.913Z,50.04
2022-08-25T08:04:22.339Z,49.95
2022-08-25T08:07:12.158Z,50.35
2022-08-25T08:10:33.169Z,49.67
2022-08-25T08:13:14.383Z,49.87
2022-08-25T08:16:12.314Z,50.04
2022-08-25T08:19:03.010Z,49.71
2022-08-25T08:21:53.633Z,50.24
2022-08-25T08:24:56.296Z,50.08
2022-08-25T08:27:47.154Z,49.99
2022-08-25T08:30:36.608Z,50.18
2022-08-25T08:33:25.753Z,49.56
2022-08-25T08:36:16.694Z,50.05
2022-08-25T08:39:05.501Z,49.96
2022-08-25T08:42:22.233Z,49.99
2022-08-25T08:45:26.539Z,49.69
2022-08-25T08:48:28.205Z,50.23
2022-08-25T08:51:23.080Z,49.75
2022-08-25T08:54:16.619Z,50.02
2022-08-25T08:57:09.772Z,49.87
2022-08-25T09:00:01.893Z,49.78
2022-08-25T09:02:55.206Z,49.82
2022-08-25T09:05:47.863Z,49.91
2022-08-25T09:08:38.208Z,49.81
2022-08-25T09:11:43.755Z,49.62
2022-08-25T09:14:53.927Z,49.55
2022-08-25T09:17:54.617Z,50.02
2022-08-25T09:20:50.962Z,49.61
2022-08-25T09:23:48.233Z,50.09
2022-08-25T09:26:39.658Z,49.75
2022-08-25T09:29:35.522Z,49.50
2022-08-25T09:32:31.612Z,49.90
2022-08-25T09:35:23.110Z,49.91
2022-08-25T09:38:13.242Z,49.72
2022-08-25T09:41:02.979Z,49.51
2022-08-25T09:43:55.182Z,49.46
2022-08-25T09:46:57.088Z,49.33
2022-08-25T09:49:47.453Z,49.88
2022-08-25T09:52:41.108Z,49.46
2022-08-25T09:55:34.309Z,49.74
2022-08-25T09:58:25.771Z,49.25
2022-08-25T10:01:18.064Z,49.11
2022-08-25T10:04:13.921Z,49.31
2022-08-25T10:07:24.035Z,49.45
2022-08-25T10:10:20.783Z,49.76
2022-08-25T10:13:16.272Z,49.28
2022-08-25T10:16:20.567Z,49.09
2022-08-25T10:19:15.729Z,49.30
2022-08-25T10:22:07.822Z,49.70
2022-08-25T10:24:56.335Z,49.86
2022-08-25T10:27:54.253Z,49.14
2022-08-25T10:30:53.438Z,49.46
2022-08-25T10:33:50.406Z,49.77
2022-08-25T10:36:48.967Z,49.73
2022-08-25T10:39:42.221Z,49.24
2022-08-25T10:42:39.926Z,49.34
2022-08-25T10:45:45.442Z,49.27
2022-08-25T10:48:48.082Z,49.56
2022-08-25T10:51:45.050Z,49.34
2022-08-25T10:54:42.165Z,49.77
2022-08-25T10:57:37.001Z,49.58
2022-08-25T11:00:31.780Z,49.60
2022-08-25T11:03:38.197Z,49.45
2022-08-25T11:06:31.939Z,49.40
2022-08-25T11:09:23.605Z,49.54
2022-08-25T11:12:13.722Z,48.99
2022-08-25T11:15:05.708Z,49.02
2022-08-25T11:17:58.543Z,49.20
2022-08-25T11:21:01.674Z,48.97
2022-08-25T11:23:55.769Z,49.55
2022-08-25T11:26:48.321Z,49.52
2022-08-25T11:29:39.701Z,49.24
2022-08-25T11:32:33.292Z,49.60
2022-08-25T11:35:29.249Z,49.56
2022-08-25T11:38:29.548Z,48.85
2022-08-25T11:41:26.299Z,49.29
2022-08-25T11:44:26.276Z,49.32
2022-08-25T11:47:35.759Z,49.11
2022-08-25T11:50:32.795Z,49.37
2022-08-25T11:53:28.413Z,48.87
2022-08-25T11:56:34.685Z,49.27
2022-08-25T12:00:00.706Z,48.99
2022-08-25T12:02:50.562Z,48.64
2022-08-25T12:05:54.067Z,49.25
2022-08-25T12:08:52.553Z,49.43
2022-08-25T12:11:56.407Z,49.28
2022-08-25T12:14:47.974Z,49.32
2022-08-25T12:17:40.592Z,48.78
2022-08-25T12:21:03.968Z,49.27
2022-08-25T12:24:11.358Z,49.26
2022-08-25T12:27:02.002Z,48.77
2022-08-25T12:29:58.077Z,49.18
2022-08-25T12:33:01.501Z,49.02
2022-08-25T12:35:57.822Z,49.36
2022-08-25T12:38:51.938Z,49.31
2022-08-25T12:41:54.651Z,48.68
2022-08-25T12:44:47.947Z,49.14
2022-08-25T12:47:40.837Z,49.22
2022-08-25T12:50:40.556Z,48.84
2022-08-25T12:53:36.099Z,48.77
2022-08-25T12:56:31.016Z,48.57
2022-08-25T12:59:22.883Z,48.98
2022-08-25T13:02:29.384Z,49.14
2022-08-25T13:05:36.847Z,48.58
2022-08-25T13:08:52.356Z,48.56
2022-08-25T13:11:49.574Z,49.30
2022-08-25T13:14:44.353Z,48.47
2022-08-25T13:17:34.587Z,48.85
2022-08-25T13:20:26.964Z,49.13
2022-08-25T13:23:19.076Z,48.99
2022-08-25T13:26:11.409Z,49.14
2022-08-25T13:29:01.767Z,48.51
2022-08-25T13:31:59.452Z,48.92
2022-08-25T13:34:52.601Z,48.79
2022-08-25T13:37:41.098Z,49.04
2022-08-25T13:40:33.835Z,49.22
2022-08-25T13:43:27.708Z,49.09
2022-08-25T13:46:20.596Z,48.55
2022-08-25T13:49:11.067Z,48.53
2022-08-25T13:51:59.761Z,49.00
2022-08-25T13:54:49.227Z,48.93
2022-08-25T13:57:38.882Z,49.12
2022-08-25T14:00:32.562Z,48.52
2022-08-25T14:03:32.031Z,48.33
2022-08-25T14:06:25.550Z,48.53
2022-08-25T14:09:17.062Z,48.97
2022-08-25T14:12:05.822Z,48.60
2022-08-25T14:15:00.370Z,48.36
2022-08-25T14:18:01.145Z,48.61
2022-08-25T14:20:52.447Z,48.46
2022-08-25T14:23:44.021Z,48.49
2022-08-25T14:26:32.563Z,48.84
2022-08-25T14:29:22.228Z,48.19
2022-08-25T14:32:11.314Z,48.18
2022-08-25T14:35:01.807Z,48.26
2022-08-25T14:37:58.435Z,48.14
2022-08-25T14:40:48.574Z,48.42
2022-08-25T14:43:38.880Z,48.62
2022-08-25T14:46:30.149Z,48.50
2022-08-25T14:49:24.995Z,48.71
2022-08-25T14:52:22.476Z,48.28
2022-08-25T14:55:12.804Z,48.18
2022-08-25T14:58:11.063Z,48.18
2022-08-25T15:01:00.135Z,48.24
2022-08-25T15:03:51.025Z,48.20
2022-08-25T15:06:39.540Z,48.00
2022-08-25T15:09:33.279Z,48.53
2022-08-25T15:12:45.956Z,47.86
2022-08-25T15:15:33.086Z,48.45
2022-08-25T15:18:21.991Z,48.50
2022-08-25T15:21:10.644Z,47.88
2022-08-25T15:24:00.354Z,48.34
2022-08-25T15:29:44.395Z,48.07
2022-08-25T15:32:34.953Z,47.81
2022-08-25T15:35:23.884Z,47.87
2022-08-25T15:38:17.762Z,48.24
2022-08-25T15:41:08.317Z,48.21
2022-08-25T15:43:59.617Z,48.24
2022-08-25T15:46:50.029Z,48.36
2022-08-25T15:49:40.284Z,48.42
2022-08-25T15:52:44.472Z,48.36
2022-08-25T15:55:35.196Z,48.00
2022-08-25T15:58:23.792Z,48.29
2022-08-25T16:01:14.666Z,48.21
2022-08-25T16:04:03.509Z,48.32
2022-08-25T16:06:54.218Z,48.15
2022-08-25T16:09:44.203Z,48.09
2022-08-25T16:12:33.273Z,48.64
2022-08-25T16:15:23.955Z,48.71
2022-08-25T16:18:17.807Z,47.91
2022-08-25T16:21:12.719Z,48.16
2022-08-25T16:24:07.439Z,48.22
2022-08-25T16:27:11.624Z,48.14
2022-08-25T16:30:01.167Z,48.17
2022-08-25T16:32:49.716Z,48.11
2022-08-25T16:35:40.635Z,48.19
2022-08-25T16:38:29.306Z,47.94
2022-08-25T16:41:21.215Z,48.03
2022-08-25T16:44:11.075Z,48.56
2022-08-25T16:46:59.883Z,48.57
2022-08-25T16:49:49.176Z,48.37
2022-08-25T16:52:55.675Z,48.36
2022-08-25T16:55:47.028Z,48.28
2022-08-25T16:58:37.572Z,48.11
2022-08-25T17:01:30.545Z,48.19
2022-08-25T17:04:19.233Z,48.63
2022-08-25T17:07:07.952Z,48.57
2022-08-25T17:09:58.016Z,48.41
2022-08-25T17:12:46.600Z,48.28
2022-08-25T17:15:40.155Z,48.58
2022-08-25T17:18:29.429Z,48.50
2022-08-25T17:21:24.059Z,48.14
2022-08-25T17:24:14.049Z,48.63
2022-08-25T17:27:02.774Z,48.43
2022-08-25T17:29:51.378Z,48.80
2022-08-25T17:32:41.844Z,48.26
2022-08-25T17:35:34.026Z,48.16
2022-08-25T17:38:25.917Z,48.72
2022-08-25T17:41:15.245Z,48.53
2022-08-25T17:44:04.254Z,48.53
2022-08-25T17:46:52.876Z,48.77
2022-08-25T17:49:42.911Z,48.13
2022-08-25T17:52:31.459Z,48.40
2022-08-25T17:55:22.997Z,48.57
2022-08-25T17:58:12.497Z,48.38
2022-08-25T18:01:01.257Z,48.39
2022-08-25T18:03:49.847Z,48.58
2022-08-25T18:06:40.439Z,48.83
2022-08-25T18:09:29.161Z,48.27
2022-08-25T18:12:17.639Z,48.85
2022-08-25T18:15:09.967Z,48.88
2022-08-25T18:17:58.520Z,49.07
2022-08-25T18:20:47.553Z,49.05
2022-08-25T18:23:37.470Z,48.60
2022-08-25T18:26:26.493Z,48.97
2022-08-25T18:29:16.694Z,48.58
2022-08-25T18:32:06.274Z,48.82
2022-08-25T18:34:55.930Z,48.44
2022-08-25T18:38:04.126Z,48.62
2022-08-25T18:40:59.361Z,48.38
2022-08-25T18:43:47.929Z,48.36
2022-08-25T18:46:36.632Z,48.70
2022-08-25T18:49:28.628Z,49.09
2022-08-25T18:52:17.474Z,49.13
2022-08-25T18:55:07.802Z,49.07
2022-08-25T18:57:58.072Z,48.50
2022-08-25T19:00:46.548Z,48.61
2022-08-25T19:03:35.446Z,48.56
2022-08-25T19:06:23.985Z,49.14
2022-08-25T19:09:12.679Z,49.02
2022-08-25T19:12:01.459Z,49.18
2022-08-25T19:14:51.432Z,48.79
2022-08-25T19:17:40.256Z,49.21
2022-08-25T19:20:30.528Z,49.06
2022-08-25T19:23:19.427Z,49.15
2022-08-25T19:26:16.921Z,49.28
2022-08-25T19:29:09.326Z,48.60
2022-08-25T19:32:01.233Z,49.03
2022-08-25T19:34:51.564Z,48.65
2022-08-25T19:37:40.418Z,49.31
2022-08-25T19:40:30.456Z,49.07
2022-08-25T19:43:19.756Z,48.81
2022-08-25T19:46:08.963Z,49.24
2022-08-25T19:49:01.500Z,49.15
2022-08-25T19:51:53.499Z,48.60
2022-08-25T19:54:45.617Z,49.22
2022-08-25T19:57:42.658Z,48.56
2022-08-25T20:00:34.144Z,48.65
2022-08-25T20:03:25.937Z,48.92
2022-08-25T20:06:16.242Z,48.87
2022-08-25T20:09:05.203Z,48.72
2022-08-25T20:11:54.186Z,49.16
2022-08-25T20:14:43.724Z,48.83
2022-08-25T20:17:32.273Z,48.74
2022-08-25T20:20:22.712Z,49.05
2022-08-25T20:23:30.179Z,49.30
2022-08-25T20:26:18.691Z,49.17
2022-08-25T20:29:07.318Z,49.20
2022-08-25T20:31:55.834Z,48.71
2022-08-25T20:37:38.775Z,48.72
2022-08-25T20:40:30.668Z,48.83
2022-08-25T20:43:20.735Z,48.84
2022-08-25T20:46:10.127Z,48.81
2022-08-25T20:48:58.703Z,49.07
2022-08-25T20:51:50.582Z,49.15
2022-08-25T20:54:40.338Z,48.62
2022-08-25T20:57:31.088Z,49.00
2022-08-25T21:00:23.563Z,49.48
2022-08-25T21:03:13.501Z,48.97
2022-08-25T21:06:02.015Z,49.30
2022-08-25T21:08:50.537Z,48.77
2022-08-25T21:11:39.439Z,48.87
2022-08-25T21:14:30.162Z,49.10
2022-08-25T21:17:19.514Z,48.95
2022-08-25T21:20:09.475Z,49.29
2022-08-25T21:22:58.004Z,48.81
2022-08-25T21:25:47.452Z,49.38
2022-08-25T21:28:35.977Z,48.82
2022-08-25T21:31:26.457Z,49.28
2022-08-25T21:34:15.852Z,48.93
2022-08-25T21:37:04.403Z,49.48
2022-08-25T21:39:54.137Z,49.42
2022-08-25T21:42:42.698Z,49.16
2022-08-25T21:45:33.296Z,49.01
2022-08-25T21:48:26.175Z,49.13
2022-08-25T21:51:16.797Z,49.42
2022-08-25T21:54:10.327Z,48.89
2022-08-25T21:57:03.229Z,49.23
2022-08-25T21:59:51.731Z,49.00
2022-08-25T22:02:40.365Z,49.36
2022-08-25T22:05:33.954Z,49.13
2022-08-25T22:08:22.513Z,48.78
2022-08-25T22:11:19.343Z,49.52
2022-08-25T22:14:08.020Z,49.26
2022-08-25T22:16:57.007Z,48.95
2022-08-25T22:19:46.602Z,48.86
2022-08-25T22:22:36.547Z,49.53
2022-08-25T22:25:25.231Z,49.44
2022-08-25T22:28:15.032Z,49.23
2022-08-25T22:31:04.090Z,48.90
2022-08-25T22:33:53.443Z,49.12
2022-08-25T22:36:42.923Z,49.05
2022-08-25T22:39:34.300Z,49.40
2022-08-25T22:42:25.614Z,49.55
2022-08-25T22:45:14.490Z,49.30
2022-08-25T22:48:03.267Z,49.58
2022-08-25T22:50:51.789Z,48.94
2022-08-25T22:53:41.309Z,49.04
2022-08-25T22:56:34.365Z,49.40
2022-08-25T22:59:22.998Z,49.46
2022-08-25T23:02:11.519Z,49.32
2022-08-25T23:05:00.926Z,48.99
2022-08-25T23:07:50.548Z,49.23
2022-08-25T23:10:39.227Z,49.14
2022-08-25T23:13:34.481Z,49.04
2022-08-25T23:16:23.345Z,48.90
2022-08-25T23:19:13.966Z,49.32
2022-08-25T23:22:11.396Z,49.37
2022-08-25T23:25:01.941Z,49.51
2022-08-25T23:27:52.090Z,48.93
2022-08-25T23:30:44.937Z,49.15
2022-08-25T23:33:46.004Z,48.87
2022-08-25T23:36:34.830Z,49.13
2022-08-25T23:39:24.063Z,49.48
2022-08-25T23:42:12.699Z,49.57
2022-08-25T23:45:01.249Z,48.92
2022-08-25T23:47:52.396Z,49.14
2022-08-25T23:50:42.373Z,49.09
2022-08-25T23:53:31.645Z,49.54
2022-08-25T23:56:20.166Z,49.56
2022-08-25T23:59:10.722Z,48.93
